Aviation Digital Data Service (ADDS)

Output produced by METARs form (0034 UTC 03 March 2015)
found at http://aviationweather.gov/adds/metars/
 
KSLK 022320Z 0300/0324 28007G14KT P6SM BKN030 
     FM030200 VRB03KT P6SM SKC 
     FM031500 20005KT P6SM OVC150 
     FM032200 19010G20KT 2SM -SN BR SCT020 OVC035